Time;durP1;ratioP1;P1;durP2;ratioP2;P2;SDS_P1;SDS_P2;PMS_P1;PMS_P2;Temp;Humidity;BMP_temperature;BMP_pressure;BME280_temperature;BME280_humidity;BME280_pressure;Samples;Min_cycle;Max_cycle;Signal;HPM_P1;HPM_P2
2023/07/18 04:39:42;;;;;;;;;1.00;1.00;;;;;25.46;36.56;101570.94;5093413;27;45248;-59
2023/07/18 04:42:07;;;;;;;;;1.50;1.50;;;;;25.81;35.70;101564.81;5075924;27;45304;-59
2023/07/18 04:44:33;;;;;;;;;0.50;0.50;;;;;26.15;35.37;101562.38;5075559;27;45304;-60
2023/07/18 04:46:59;;;;;;;;;1.00;1.00;;;;;26.31;34.98;101562.63;5075800;27;45246;-60
2023/07/18 04:49:25;;;;;;;;;1.00;0.75;;;;;26.52;34.67;101554.13;5075786;27;46227;-59
2023/07/18 04:51:51;;;;;;;;;2.50;1.00;;;;;26.68;34.76;101553.44;5074780;28;45271;-60
2023/07/18 04:54:17;;;;;;;;;0.25;0.25;;;;;26.69;34.06;101538.69;5075820;27;45212;-59
2023/07/18 04:56:42;;;;;;;;;2.00;2.00;;;;;26.79;33.71;101544.13;5075767;27;45234;-61
2023/07/18 04:59:07;;;;;;;;;0.75;0.75;;;;;26.97;34.24;101536.75;5074887;27;53375;-61
2023/07/18 05:01:33;;;;;;;;;0.75;0.75;;;;;27.06;33.81;101538.56;5075530;28;51230;-60
2023/07/18 05:03:58;;;;;;;;;0.50;0.50;;;;;27.09;33.50;101535.50;5075290;27;45287;-60
2023/07/18 05:06:24;;;;;;;;;1.50;0.00;;;;;27.13;33.56;101534.16;5075456;28;45357;-61
2023/07/18 05:08:49;;;;;;;;;1.25;0.50;;;;;27.28;33.09;101532.56;5075329;28;46191;-60
2023/07/18 05:11:15;;;;;;;;;2.25;1.00;;;;;27.32;32.92;101522.09;5075570;27;45440;-60
2023/07/18 05:13:40;;;;;;;;;2.00;2.00;;;;;27.38;32.79;101521.47;5075120;27;45376;-60
2023/07/18 05:16:05;;;;;;;;;0.00;0.00;;;;;27.52;33.25;101514.50;5075465;27;45509;-60
2023/07/18 05:18:31;;;;;;;;;1.00;1.00;;;;;27.58;32.75;101520.25;5075076;28;53475;-61
2023/07/18 05:20:56;;;;;;;;;0.00;0.00;;;;;27.63;32.93;101522.53;5074987;28;53717;-60
2023/07/18 05:23:22;;;;;;;;;1.00;1.00;;;;;27.75;32.81;101530.34;5075238;27;45303;-59
2023/07/18 05:25:48;;;;;;;;;2.00;2.00;;;;;27.82;31.94;101534.16;5075069;27;45280;-61
2023/07/18 05:28:13;;;;;;;;;5.00;2.00;;;;;27.87;32.37;101536.47;5074837;27;45305;-61
2023/07/18 05:30:38;;;;;;;;;2.50;0.50;;;;;27.87;32.41;101528.19;5074276;28;51694;-60
2023/07/18 05:33:04;;;;;;;;;2.50;1.50;;;;;27.86;31.95;101535.59;5075297;27;45292;-61
2023/07/18 05:35:29;;;;;;;;;1.00;1.00;;;;;27.84;31.87;101523.00;5074385;28;57159;-60
2023/07/18 05:37:56;;;;;;;;;2.75;0.75;;;;;27.91;31.48;101534.22;5074520;27;45860;-61
2023/07/18 05:40:21;;;;;;;;;1.00;1.00;;;;;27.80;31.55;101532.63;5063030;27;45261;-60
2023/07/18 05:42:46;;;;;;;;;1.00;1.00;;;;;27.87;31.82;101533.69;5061272;28;45591;-59
2023/07/18 05:45:12;;;;;;;;;0.50;0.50;;;;;27.86;31.89;101531.97;5059918;28;59746;-59
2023/07/18 05:47:37;;;;;;;;;0.50;0.50;;;;;28.07;31.88;101532.41;5060939;28;46094;-58
2023/07/18 05:50:04;;;;;;;;;3.50;1.00;;;;;28.14;31.64;101536.25;5061188;28;45602;-61
2023/07/18 05:52:30;;;;;;;;;2.50;2.00;;;;;28.24;32.16;101537.00;5061119;28;45303;-61
2023/07/18 05:54:55;;;;;;;;;0.75;0.75;;;;;28.26;31.37;101542.38;5061166;28;45338;-61
2023/07/18 05:57:20;;;;;;;;;1.00;1.00;;;;;28.20;31.98;101534.75;5061042;28;46214;-61
2023/07/18 05:59:46;;;;;;;;;4.00;1.75;;;;;28.23;31.60;101535.31;5059714;28;45319;-61
2023/07/18 06:02:11;;;;;;;;;1.00;1.00;;;;;28.27;31.42;101545.97;5061358;28;45251;-61
2023/07/18 17:20:40;;;;;;;;;3.50;3.50;;;;;36.44;21.24;100935.41;5100047;27;45711;-67
2023/07/18 17:23:06;;;;;;;;;3.25;3.25;;;;;36.83;20.51;100941.56;5096361;27;45382;-58
2023/07/18 17:25:31;;;;;;;;;2.75;2.75;;;;;37.07;20.34;100947.00;5096343;27;45251;-58
2023/07/18 17:27:57;;;;;;;;;5.00;3.00;;;;;37.33;20.08;100951.31;5095879;27;45265;-59
2023/07/18 17:30:22;;;;;;;;;2.75;2.75;;;;;37.44;20.13;100944.88;5095952;27;45241;-59
2023/07/18 17:32:47;;;;;;;;;2.00;2.00;;;;;37.53;19.84;100924.91;5095098;27;45255;-58
2023/07/18 17:35:15;;;;;;;;;3.50;3.50;;;;;37.82;20.34;100941.63;5096220;27;45215;-58
2023/07/18 17:37:40;;;;;;;;;3.00;3.00;;;;;37.82;19.29;100936.03;5096342;27;45274;-58
2023/07/18 17:40:13;;;;;;;;;5.00;3.00;;;;;37.95;20.04;100934.91;5093952;27;54317;-58
2023/07/18 17:42:45;;;;;;;;;2.25;2.25;;;;;38.06;19.35;100934.06;5096445;27;45432;-59
2023/07/18 17:45:12;;;;;;;;;5.00;4.00;;;;;37.84;18.70;100939.44;5095801;27;45499;-59
2023/07/18 17:47:38;;;;;;;;;4.00;4.00;;;;;37.53;19.49;100930.50;5095911;27;45249;-59
2023/07/18 17:50:04;;;;;;;;;3.25;3.25;;;;;37.77;20.20;100937.88;5095447;27;45289;-59
2023/07/18 17:52:30;;;;;;;;;4.50;4.50;;;;;37.73;19.10;100931.03;5095830;27;45335;-59
2023/07/18 17:54:55;;;;;;;;;3.50;3.50;;;;;37.72;18.84;100935.78;5095352;27;45464;-60
2023/07/18 17:57:20;;;;;;;;;2.00;2.00;;;;;37.81;19.87;100934.31;5095509;27;52991;-58
2023/07/18 17:59:46;;;;;;;;;4.00;4.00;;;;;37.87;19.92;100927.72;5095659;27;45449;-58
2023/07/18 18:02:11;;;;;;;;;4.25;4.25;;;;;37.93;19.51;100925.06;5095984;27;45281;-58
2023/07/18 18:04:36;;;;;;;;;3.00;3.00;;;;;37.82;19.42;100936.03;5095902;27;45296;-59
2023/07/18 18:07:02;;;;;;;;;3.00;3.00;;;;;37.90;19.26;100926.41;5095767;27;45365;-60
2023/07/18 18:09:27;;;;;;;;;2.00;2.00;;;;;37.72;19.48;100929.34;5094800;27;45600;-58
2023/07/18 18:11:55;;;;;;;;;3.00;2.00;;;;;37.51;19.03;100928.00;5085384;27;45504;-59
2023/07/18 18:14:21;;;;;;;;;2.00;1.50;;;;;37.48;19.55;100920.06;5095154;27;45299;-60
2023/07/18 18:16:46;;;;;;;;;6.25;5.00;;;;;37.36;19.51;100920.06;5094577;27;45302;-59
2023/07/18 18:19:11;;;;;;;;;2.00;2.00;;;;;37.15;19.50;100925.38;5094763;27;45153;-58
2023/07/18 18:21:37;;;;;;;;;3.50;3.50;;;;;37.20;20.16;100925.50;5081304;27;45296;-60
2023/07/18 18:24:02;;;;;;;;;5.50;4.00;;;;;37.17;19.70;100928.81;5078520;28;53236;-62
2023/07/18 18:26:28;;;;;;;;;3.00;3.00;;;;;37.02;19.75;100929.22;5079660;27;45361;-63
2023/07/18 18:28:54;;;;;;;;;2.50;2.50;;;;;36.98;19.56;100920.47;5080335;28;45270;-63
2023/07/18 18:31:20;;;;;;;;;3.75;3.75;;;;;36.90;19.84;100919.97;5081032;27;45302;-62
2023/07/18 18:33:45;;;;;;;;;4.00;4.00;;;;;36.85;20.02;100923.47;5081444;27;45666;-61
2023/07/18 18:36:10;;;;;;;;;3.25;3.00;;;;;36.58;20.20;100924.94;5081650;27;45243;-61
2023/07/18 18:38:36;;;;;;;;;3.75;3.75;;;;;36.65;20.35;100923.75;5081094;27;45564;-62
2023/07/18 18:41:03;;;;;;;;;2.75;2.75;;;;;36.67;20.34;100920.72;5080288;27;45371;-65
2023/07/18 18:43:28;;;;;;;;;4.00;4.00;;;;;36.59;20.53;100923.81;5080317;27;45315;-61
2023/07/18 18:45:54;;;;;;;;;4.00;4.00;;;;;36.53;20.76;100925.63;5079841;28;45470;-61
2023/07/18 18:48:19;;;;;;;;;4.00;4.00;;;;;36.30;20.15;100919.94;5080592;27;46155;-62
2023/07/18 18:50:45;;;;;;;;;4.75;3.00;;;;;36.09;20.23;100915.66;5077306;28;45693;-61
2023/07/18 18:53:10;;;;;;;;;5.00;5.00;;;;;36.01;20.38;100921.53;5065946;27;47564;-62
2023/07/18 18:55:35;;;;;;;;;4.75;4.75;;;;;35.96;20.25;100922.25;5068465;28;54283;-61
2023/07/18 18:58:00;;;;;;;;;5.50;4.00;;;;;36.06;20.75;100923.66;5080410;27;45400;-62
2023/07/18 19:00:26;;;;;;;;;6.50;5.50;;;;;36.02;20.92;100912.09;5069838;28;54746;-60
2023/07/18 19:02:51;;;;;;;;;4.00;4.00;;;;;35.99;20.87;100921.78;5080690;27;45242;-61
2023/07/18 19:05:16;;;;;;;;;3.25;3.25;;;;;35.89;20.79;100923.41;5079312;27;45520;-62
2023/07/18 19:07:42;;;;;;;;;2.00;2.00;;;;;35.79;20.62;100929.53;5080917;27;46764;-61
2023/07/18 19:10:09;;;;;;;;;5.75;4.00;;;;;35.67;21.03;100931.34;5078717;27;45224;-63
2023/07/18 19:12:34;;;;;;;;;4.00;3.00;;;;;35.64;21.07;100929.03;5084516;27;45385;-63
2023/07/18 19:14:59;;;;;;;;;4.00;4.00;;;;;35.77;21.96;100923.31;5082878;27;45350;-64
2023/07/18 19:17:25;;;;;;;;;3.00;3.00;;;;;35.83;21.29;100924.31;5080467;27;46542;-64
2023/07/18 19:19:50;;;;;;;;;2.75;2.75;;;;;35.77;21.01;100926.13;5080473;27;45429;-64
2023/07/18 19:22:15;;;;;;;;;3.00;3.00;;;;;35.75;21.45;100924.63;5079950;27;55773;-62
2023/07/18 19:24:41;;;;;;;;;5.00;5.00;;;;;35.75;21.23;100924.63;5079863;27;45434;-63
2023/07/18 19:27:10;;;;;;;;;5.00;5.00;;;;;35.66;21.19;100933.28;5079207;27;45331;-63
2023/07/18 19:29:36;;;;;;;;;3.25;3.25;;;;;35.70;21.21;100925.31;5080065;27;45445;-64
2023/07/18 19:32:02;;;;;;;;;6.50;6.50;;;;;35.77;21.59;100928.06;5079496;27;45365;-65
2023/07/18 19:34:28;;;;;;;;;7.75;7.00;;;;;35.80;21.80;100930.41;5078778;28;45454;-63
2023/07/18 19:36:53;;;;;;;;;8.25;8.25;;;;;35.66;21.81;100929.63;5080191;27;45269;-64
2023/07/18 19:39:19;;;;;;;;;9.00;9.00;;;;;35.69;21.80;100926.38;5079813;27;45317;-65
2023/07/18 19:41:45;;;;;;;;;7.25;7.25;;;;;35.73;21.87;100930.44;5080630;27;45369;-65
2023/07/18 19:44:11;;;;;;;;;9.50;9.25;;;;;35.71;22.17;100928.94;5079435;27;45364;-64
2023/07/18 19:46:36;;;;;;;;;11.00;11.00;;;;;35.70;22.19;100933.69;5079943;27;46513;-64
2023/07/18 19:49:02;;;;;;;;;9.75;7.50;;;;;35.68;21.83;100933.03;5078616;27;45369;-64
2023/07/18 19:51:28;;;;;;;;;10.00;10.00;;;;;35.60;22.26;100938.94;5080030;27;45414;-64
2023/07/18 19:53:53;;;;;;;;;12.00;12.00;;;;;35.54;22.94;100942.63;5079894;27;45380;-65
2023/07/18 19:56:18;;;;;;;;;11.50;11.25;;;;;35.54;23.20;100946.28;5079138;28;57241;-57
2023/07/18 19:58:44;;;;;;;;;12.25;10.25;;;;;35.53;22.99;100949.28;5079700;27;45389;-57
2023/07/18 20:01:09;;;;;;;;;10.75;9.50;;;;;35.47;23.33;100950.22;5079737;27;45342;-58
2023/07/18 20:03:34;;;;;;;;;12.00;12.00;;;;;35.41;22.95;100946.38;5079845;27;45724;-58
2023/07/18 20:06:00;;;;;;;;;9.25;9.25;;;;;35.36;23.31;100948.16;5079623;27;45345;-58
2023/07/18 20:08:25;;;;;;;;;13.75;10.00;;;;;35.27;23.27;100947.59;5079634;27;45389;-58
2023/07/18 20:10:51;;;;;;;;;11.00;9.50;;;;;35.27;23.09;100958.75;5079451;27;45775;-58
2023/07/18 20:13:16;;;;;;;;;13.75;13.00;;;;;35.20;23.57;100955.13;5079573;27;45782;-58
2023/07/18 20:15:42;;;;;;;;;11.00;11.00;;;;;35.10;23.39;100966.78;5079296;27;46347;-58
2023/07/18 20:18:08;;;;;;;;;11.75;11.75;;;;;35.04;23.31;100959.34;5079520;27;45347;-56
2023/07/18 20:20:34;;;;;;;;;10.00;10.00;;;;;34.94;23.71;100953.41;5079862;27;45273;-57
2023/07/18 20:22:59;;;;;;;;;11.75;11.75;;;;;34.99;23.80;100967.50;5079123;27;45547;-59
2023/07/18 20:25:24;;;;;;;;;28.00;23.75;;;;;34.89;24.12;100959.63;5078844;27;61478;-58
2023/07/18 20:27:50;;;;;;;;;18.00;17.75;;;;;34.87;24.11;100961.81;5079421;27;45342;-58
2023/07/18 20:30:16;;;;;;;;;14.25;14.00;;;;;34.86;24.03;100979.59;5079673;27;45407;-58
2023/07/18 20:32:41;;;;;;;;;12.00;12.00;;;;;34.82;23.63;100967.19;5079991;27;45549;-57
2023/07/18 20:35:08;;;;;;;;;22.75;21.25;;;;;34.87;24.53;100978.53;5079212;28;47164;-59
2023/07/18 20:37:33;;;;;;;;;27.75;26.00;;;;;34.85;25.20;100975.09;5079060;27;45319;-59
2023/07/18 20:40:03;;;;;;;;;18.75;18.75;;;;;34.79;25.06;100977.94;5079271;27;45409;-57
2023/07/18 20:42:28;;;;;;;;;18.75;17.75;;;;;34.83;25.14;100973.59;5078387;27;45378;-57
2023/07/18 20:44:54;;;;;;;;;20.50;19.50;;;;;34.89;25.26;100976.34;5077339;28;60714;-58
2023/07/18 20:47:19;;;;;;;;;23.00;18.75;;;;;34.86;25.72;100970.38;5079093;28;45309;-59
2023/07/18 20:49:44;;;;;;;;;14.50;13.25;;;;;34.81;24.72;100975.75;5079280;28;45361;-58
